Time;durP1;ratioP1;P1;durP2;ratioP2;P2;SDS_P1;SDS_P2;PMS_P1;PMS_P2;Temp;Humidity;BMP_temperature;BMP_pressure;BME280_temperature;BME280_humidity;BME280_pressure;Samples;Min_cycle;Max_cycle;Signal;HPM_P1;HPM_P2
2021/07/22 00:01:37;;;;;;;12.77;7.97;;;15.30;99.90;;;;;;5073669;28;20028;-86
2021/07/22 00:04:03;;;;;;;10.18;8.75;;;15.20;99.90;;;;;;5073713;28;20119;-86
2021/07/22 00:06:29;;;;;;;9.00;8.10;;;15.20;99.90;;;;;;5073567;28;20494;-86
2021/07/22 00:08:54;;;;;;;11.77;8.13;;;15.20;99.90;;;;;;5073399;28;20037;-89
2021/07/22 00:11:20;;;;;;;9.73;8.27;;;15.10;99.90;;;;;;5073382;28;20051;-89
2021/07/22 00:13:45;;;;;;;10.18;9.00;;;15.00;99.90;;;;;;5073620;28;20475;-88
2021/07/22 00:16:15;;;;;;;10.25;8.55;;;15.10;99.90;;;;;;5073321;28;20021;-87
2021/07/22 00:18:41;;;;;;;12.05;9.13;;;15.10;99.90;;;;;;5073456;28;20027;-87
2021/07/22 00:21:07;;;;;;;9.23;8.32;;;15.00;99.90;;;;;;5073309;28;20029;-85
2021/07/22 00:23:32;;;;;;;10.20;9.15;;;14.90;99.90;;;;;;5073246;28;20024;-87
2021/07/22 00:26:05;;;;;;;9.55;8.27;;;14.90;99.90;;;;;;5073345;28;20082;-87
2021/07/22 00:28:31;;;;;;;9.50;7.90;;;14.90;99.90;;;;;;5073218;28;20094;-87
2021/07/22 00:30:57;;;;;;;10.57;8.90;;;14.90;99.90;;;;;;5074334;28;20017;-88
2021/07/22 00:33:23;;;;;;;8.20;7.30;;;14.90;99.90;;;;;;5074130;28;20020;-88
2021/07/22 00:35:49;;;;;;;10.07;8.48;;;14.80;99.90;;;;;;5072937;28;20102;-87
2021/07/22 00:38:15;;;;;;;11.82;9.35;;;14.80;99.90;;;;;;5073077;28;20025;-86
2021/07/22 00:40:45;;;;;;;8.90;8.00;;;14.80;99.90;;;;;;5073190;28;20025;-87
2021/07/22 00:43:11;;;;;;;9.20;8.02;;;14.70;99.90;;;;;;5073152;28;20028;-89
2021/07/22 00:45:36;;;;;;;9.35;8.32;;;14.70;99.90;;;;;;5073121;28;20046;-87
2021/07/22 00:48:02;;;;;;;10.30;8.25;;;14.60;99.90;;;;;;5073015;28;20400;-88
2021/07/22 00:50:31;;;;;;;10.68;8.68;;;14.60;99.90;;;;;;5072973;28;20408;-86
2021/07/22 00:52:58;;;;;;;10.27;8.27;;;14.60;99.90;;;;;;5072969;28;20515;-89
2021/07/22 00:55:27;;;;;;;10.30;8.90;;;14.50;99.90;;;;;;5073164;28;20032;-88
2021/07/22 00:57:53;;;;;;;11.40;8.93;;;14.50;99.90;;;;;;5072871;28;20029;-87
2021/07/22 01:00:20;;;;;;;11.18;8.35;;;14.40;99.90;;;;;;5073011;28;20044;-89
2021/07/22 01:02:45;;;;;;;14.30;10.23;;;14.40;99.90;;;;;;5072963;28;20487;-88
2021/07/22 01:05:11;;;;;;;10.40;9.00;;;14.30;99.90;;;;;;5073086;28;20031;-86
2021/07/22 01:07:37;;;;;;;11.65;9.02;;;14.40;99.90;;;;;;5073072;28;20087;-87
2021/07/22 01:10:04;;;;;;;11.60;9.00;;;14.30;99.90;;;;;;5073049;28;20031;-88
2021/07/22 01:12:30;;;;;;;11.77;9.65;;;14.30;99.90;;;;;;5072891;28;20539;-87
2021/07/22 01:14:56;;;;;;;10.93;8.82;;;14.30;99.90;;;;;;5072813;28;20060;-87
2021/07/22 01:17:46;;;;;;;10.15;9.05;;;14.20;99.90;;;;;;5072918;28;20055;-88
2021/07/22 01:20:22;;;;;;;15.30;9.20;;;14.20;99.90;;;;;;5077168;28;20538;-86
2021/07/22 01:22:50;;;;;;;10.50;9.40;;;14.20;99.90;;;;;;5076781;28;20032;-87
2021/07/22 01:25:17;;;;;;;9.90;8.57;;;14.20;99.90;;;;;;5076673;28;20029;-87
2021/07/22 01:27:43;;;;;;;15.20;9.02;;;14.10;99.90;;;;;;5076527;28;20036;-87
2021/07/22 01:30:10;;;;;;;12.45;9.70;;;14.10;99.90;;;;;;5076699;28;20344;-86
2021/07/22 01:32:35;;;;;;;12.13;9.07;;;14.10;99.90;;;;;;5076226;28;20475;-88
2021/07/22 01:35:01;;;;;;;10.13;9.05;;;14.10;99.90;;;;;;5076595;28;20050;-88
2021/07/22 01:37:27;;;;;;;11.10;9.63;;;14.00;99.90;;;;;;5076232;28;20020;-85
2021/07/22 01:39:54;;;;;;;11.68;9.20;;;13.90;99.90;;;;;;5077599;28;20387;-87
2021/07/22 01:42:20;;;;;;;12.43;10.00;;;13.90;99.90;;;;;;5076365;28;20110;-86
2021/07/22 01:44:45;;;;;;;10.70;8.95;;;14.00;99.90;;;;;;5076270;28;20024;-85
2021/07/22 01:47:11;;;;;;;11.25;9.90;;;13.90;99.90;;;;;;5075960;28;20502;-86
2021/07/22 01:49:37;;;;;;;10.40;9.30;;;13.80;99.90;;;;;;5076026;28;20095;-88
2021/07/22 01:52:05;;;;;;;11.85;9.35;;;13.80;99.90;;;;;;5076022;28;20029;-84
2021/07/22 01:54:31;;;;;;;9.23;8.30;;;13.80;99.90;;;;;;5076272;28;20074;-88
2021/07/22 01:56:58;;;;;;;11.25;9.32;;;13.80;99.90;;;;;;5076151;28;20024;-87
2021/07/22 01:59:24;;;;;;;11.88;9.40;;;13.90;99.90;;;;;;5075798;28;20491;-86
2021/07/22 02:01:50;;;;;;;11.00;9.43;;;13.80;99.90;;;;;;5075898;28;20029;-85
2021/07/22 02:04:16;;;;;;;10.98;8.48;;;13.80;99.90;;;;;;5075846;28;20032;-87
2021/07/22 02:06:42;;;;;;;11.02;9.23;;;13.80;99.90;;;;;;5076919;28;20103;-88
2021/07/22 02:09:07;;;;;;;11.45;9.27;;;13.80;99.90;;;;;;5077216;28;20024;-87
2021/07/22 02:11:33;;;;;;;10.27;9.18;;;13.60;99.90;;;;;;5075895;28;20849;-89
2021/07/22 02:13:59;;;;;;;12.02;9.30;;;13.60;99.90;;;;;;5075987;28;20147;-88
2021/07/22 02:16:24;;;;;;;11.15;8.82;;;13.60;99.90;;;;;;5075929;28;20532;-87
2021/07/22 02:18:50;;;;;;;11.57;9.82;;;13.60;99.90;;;;;;5077136;28;20021;-86
2021/07/22 02:21:16;;;;;;;11.93;9.68;;;13.60;99.90;;;;;;5075523;28;20020;-87
2021/07/22 02:23:41;;;;;;;12.95;9.20;;;13.60;99.90;;;;;;5075698;28;20551;-86
2021/07/22 02:26:08;;;;;;;12.18;9.38;;;13.70;99.90;;;;;;5075669;28;20119;-85
2021/07/22 02:28:35;;;;;;;10.48;8.68;;;13.80;99.90;;;;;;5075428;28;20479;-86
2021/07/22 02:31:01;;;;;;;12.45;9.23;;;13.70;99.90;;;;;;5074295;28;20543;-86
2021/07/22 02:33:27;;;;;;;12.02;9.20;;;13.70;99.90;;;;;;5075366;28;20032;-89
2021/07/22 02:35:53;;;;;;;11.27;9.15;;;13.70;99.90;;;;;;5075445;28;20020;-88
2021/07/22 02:38:19;;;;;;;11.35;9.20;;;13.60;99.90;;;;;;5075677;28;20081;-86
2021/07/22 02:40:45;;;;;;;10.48;9.38;;;13.60;99.90;;;;;;5075276;28;20111;-85
2021/07/22 02:43:11;;;;;;;13.52;9.52;;;13.60;99.90;;;;;;5075079;28;20035;-85
2021/07/22 02:45:39;;;;;;;13.07;9.57;;;13.50;99.90;;;;;;5075212;28;20486;-89
2021/07/22 02:48:05;;;;;;;10.18;9.18;;;13.50;99.90;;;;;;5075066;28;20029;-88
2021/07/22 02:50:32;;;;;;;12.68;9.85;;;13.50;99.90;;;;;;5075044;28;20071;-87
2021/07/22 02:53:03;;;;;;;10.63;8.88;;;13.50;99.90;;;;;;5074807;28;20111;-86
2021/07/22 02:55:29;;;;;;;11.68;9.23;;;13.60;99.90;;;;;;5074940;28;20024;-86
2021/07/22 02:57:55;;;;;;;9.88;8.77;;;13.60;99.90;;;;;;5074922;28;20031;-89
2021/07/22 03:00:21;;;;;;;11.75;9.18;;;13.50;99.90;;;;;;5074679;28;20480;-86
2021/07/22 03:02:47;;;;;;;11.25;8.68;;;13.40;99.90;;;;;;5074522;28;20033;-87
2021/07/22 03:05:12;;;;;;;10.07;9.00;;;13.50;99.90;;;;;;5074789;28;20443;-86
2021/07/22 03:07:38;;;;;;;11.02;8.93;;;13.40;99.90;;;;;;5074926;28;20043;-87
2021/07/22 03:10:04;;;;;;;12.00;9.48;;;13.40;99.90;;;;;;5074713;28;20460;-88
2021/07/22 03:12:30;;;;;;;11.40;8.77;;;13.40;99.90;;;;;;5074504;28;20024;-86
2021/07/22 03:14:56;;;;;;;9.65;8.57;;;13.40;99.90;;;;;;5074449;28;20594;-87
2021/07/22 03:17:22;;;;;;;12.25;9.13;;;13.40;99.90;;;;;;5074493;28;20024;-85
2021/07/22 03:19:47;;;;;;;14.13;9.18;;;13.40;99.90;;;;;;5074400;28;20020;-85
2021/07/22 03:22:14;;;;;;;10.82;8.85;;;13.40;99.90;;;;;;5074359;28;20110;-86
2021/07/22 03:24:40;;;;;;;12.73;9.38;;;13.50;99.90;;;;;;5074360;28;20035;-87
2021/07/22 03:27:05;;;;;;;11.57;9.45;;;13.40;99.90;;;;;;5074053;28;20387;-87
2021/07/22 03:29:32;;;;;;;12.32;9.20;;;13.40;99.90;;;;;;5074237;28;20463;-87
2021/07/22 03:31:59;;;;;;;12.50;9.30;;;13.40;99.90;;;;;;5075450;28;20013;-86
2021/07/22 03:34:25;;;;;;;11.68;10.07;;;13.40;99.90;;;;;;5074215;28;20115;-83
2021/07/22 03:36:50;;;;;;;12.10;9.20;;;13.50;99.90;;;;;;5074249;28;20111;-87
2021/07/22 03:39:16;;;;;;;12.07;9.93;;;13.50;99.90;;;;;;5074122;28;20035;-87
2021/07/22 03:41:47;;;;;;;9.90;8.90;;;13.40;99.90;;;;;;5073671;28;20029;-87
2021/07/22 03:44:14;;;;;;;12.00;8.93;;;13.40;99.90;;;;;;5074175;28;20021;-88
2021/07/22 03:46:40;;;;;;;10.65;9.52;;;13.50;99.90;;;;;;5074078;28;20024;-86
2021/07/22 03:49:05;;;;;;;10.77;9.45;;;13.50;99.90;;;;;;5074109;28;20555;-87
2021/07/22 03:51:31;;;;;;;10.05;9.05;;;13.50;99.90;;;;;;5074083;28;20028;-86
2021/07/22 03:53:57;;;;;;;11.07;8.32;;;13.60;99.90;;;;;;5074210;28;20025;-87
2021/07/22 03:56:22;;;;;;;12.40;9.10;;;13.60;99.90;;;;;;5073991;28;20060;-86
2021/07/22 03:58:52;;;;;;;13.25;9.30;;;13.70;99.90;;;;;;5074009;28;20056;-87
2021/07/22 04:01:18;;;;;;;10.70;9.00;;;13.70;99.90;;;;;;5073665;28;20067;-90
2021/07/22 04:03:43;;;;;;;12.45;8.90;;;13.70;99.90;;;;;;5073835;28;20020;-87
2021/07/22 04:06:10;;;;;;;11.30;9.30;;;13.70;99.90;;;;;;5073714;28;20028;-87
2021/07/22 04:08:36;;;;;;;13.43;9.75;;;13.80;99.90;;;;;;5074876;28;20493;-90
2021/07/22 04:11:02;;;;;;;14.25;9.15;;;13.80;99.90;;;;;;5073466;28;20111;-88
2021/07/22 04:13:27;;;;;;;11.45;9.25;;;13.80;99.90;;;;;;5073596;28;20081;-87
2021/07/22 04:15:53;;;;;;;13.60;11.18;;;13.90;99.90;;;;;;5073645;28;20087;-86
2021/07/22 04:18:19;;;;;;;28.48;19.27;;;14.00;99.90;;;;;;5073912;28;20033;-89
2021/07/22 04:20:44;;;;;;;18.83;15.30;;;14.00;99.90;;;;;;5073512;28;20038;-85
2021/07/22 04:23:10;;;;;;;13.02;10.77;;;14.10;99.90;;;;;;5073200;28;20029;-87
2021/07/22 04:25:35;;;;;;;11.27;9.52;;;14.10;99.90;;;;;;5073322;28;20031;-86
2021/07/22 04:28:01;;;;;;;9.52;8.55;;;14.20;99.90;;;;;;5073247;28;20472;-86
2021/07/22 04:30:27;;;;;;;13.32;8.98;;;14.30;99.90;;;;;;5073394;28;20040;-85
2021/07/22 04:32:57;;;;;;;10.93;9.45;;;14.50;99.90;;;;;;5073080;28;20032;-88
2021/07/22 04:35:22;;;;;;;11.70;8.80;;;16.30;99.90;;;;;;5074154;28;20022;-83
2021/07/22 04:37:48;;;;;;;14.40;8.10;;;17.30;99.90;;;;;;5073142;28;20028;-84
2021/07/22 04:40:14;;;;;;;10.07;7.90;;;17.90;99.90;;;;;;5074446;28;20182;-78
2021/07/22 04:42:39;;;;;;;10.40;7.07;;;17.50;99.90;;;;;;5071292;28;20494;-79
2021/07/22 04:45:06;;;;;;;9.15;8.20;;;17.30;99.90;;;;;;5072129;28;20116;-85
2021/07/22 04:47:31;;;;;;;10.98;7.45;;;17.50;99.90;;;;;;5071899;28;20058;-88
2021/07/22 04:49:57;;;;;;;13.10;9.05;;;17.90;99.90;;;;;;5072474;28;20336;-87
2021/07/22 04:52:23;;;;;;;13.90;8.75;;;17.80;99.90;;;;;;5070906;28;20028;-79
2021/07/22 04:54:49;;;;;;;10.20;7.57;;;18.20;99.90;;;;;;5072105;28;20032;-81
2021/07/22 04:57:14;;;;;;;9.73;7.30;;;18.20;99.90;;;;;;5071769;28;20024;-80
2021/07/22 04:59:40;;;;;;;10.73;7.10;;;18.10;99.90;;;;;;5070944;28;20048;-88
2021/07/22 05:02:06;;;;;;;10.43;7.18;;;17.70;99.90;;;;;;5071844;28;20028;-80
2021/07/22 05:04:31;;;;;;;8.35;7.35;;;17.40;99.90;;;;;;5071393;28;20028;-80
2021/07/22 05:06:57;;;;;;;11.55;7.00;;;17.30;99.90;;;;;;5072698;28;20095;-80
2021/07/22 05:09:23;;;;;;;9.98;7.22;;;17.70;99.90;;;;;;5072357;28;20052;-80
2021/07/22 05:11:49;;;;;;;13.27;8.48;;;17.60;99.90;;;;;;5073258;28;20067;-82
2021/07/22 05:14:14;;;;;;;33.17;12.43;;;17.60;99.90;;;;;;5072042;28;20039;-81
2021/07/22 05:16:40;;;;;;;16.08;8.23;;;17.70;99.90;;;;;;5071513;28;20021;-80
2021/07/22 05:19:06;;;;;;;19.80;7.97;;;17.60;99.90;;;;;;5072410;28;20091;-80
2021/07/22 05:21:31;;;;;;;19.73;8.07;;;17.80;99.90;;;;;;5072307;28;20025;-89
2021/07/22 05:23:57;;;;;;;36.75;8.70;;;17.90;99.90;;;;;;5072431;28;20352;-80
2021/07/22 05:26:23;;;;;;;16.10;7.72;;;17.80;99.90;;;;;;5071629;28;20047;-80
2021/07/22 05:28:48;;;;;;;18.95;8.60;;;17.70;99.90;;;;;;5071419;28;20040;-80
2021/07/22 05:31:14;;;;;;;12.48;8.52;;;18.10;99.90;;;;;;5071604;28;20020;-80
2021/07/22 05:33:40;;;;;;;13.52;8.75;;;18.00;99.90;;;;;;5071632;28;20025;-82
2021/07/22 05:36:07;;;;;;;12.80;8.48;;;18.20;99.90;;;;;;5071445;28;20120;-79
2021/07/22 05:38:35;;;;;;;10.85;7.90;;;18.30;99.90;;;;;;5072720;28;20035;-81
2021/07/22 05:41:06;;;;;;;26.13;8.50;;;18.40;99.90;;;;;;5071658;28;20123;-90
2021/07/22 05:43:33;;;;;;;17.45;7.10;;;18.30;99.90;;;;;;5072774;28;20020;-79
2021/07/22 05:45:59;;;;;;;19.10;7.90;;;18.60;99.90;;;;;;5071717;28;20051;-79
2021/07/22 05:48:25;;;;;;;18.13;8.00;;;18.70;99.40;;;;;;5071656;28;20036;-80
2021/07/22 05:50:50;;;;;;;12.90;7.30;;;18.50;99.90;;;;;;5071496;28;20033;-82
2021/07/22 05:53:17;;;;;;;12.10;7.28;;;18.80;99.50;;;;;;5071614;28;20483;-79
2021/07/22 05:55:43;;;;;;;12.50;8.93;;;19.10;98.70;;;;;;5071188;28;20020;-80
2021/07/22 05:58:09;;;;;;;19.77;8.40;;;19.40;98.10;;;;;;5072521;28;20371;-80
2021/07/22 06:00:35;;;;;;;13.77;7.90;;;19.30;98.10;;;;;;5070959;28;20049;-79
2021/07/22 06:03:07;;;;;;;10.02;6.72;;;19.40;98.20;;;;;;5071317;28;20020;-87
2021/07/22 06:05:34;;;;;;;11.23;7.32;;;19.50;98.00;;;;;;5075829;28;20158;-79
2021/07/22 06:08:04;;;;;;;9.43;7.22;;;19.60;97.60;;;;;;5074596;28;20036;-77
2021/07/22 06:10:30;;;;;;;12.95;7.93;;;19.60;97.90;;;;;;5076539;28;20020;-84
2021/07/22 06:12:56;;;;;;;10.55;6.43;;;19.70;96.90;;;;;;5074720;28;20028;-80
2021/07/22 06:15:23;;;;;;;19.70;6.78;;;20.00;95.80;;;;;;5075021;28;20031;-80
2021/07/22 06:17:48;;;;;;;17.33;7.05;;;20.00;94.80;;;;;;5075400;28;20028;-78
2021/07/22 06:20:15;;;;;;;8.32;6.13;;;19.90;94.20;;;;;;5075801;28;20020;-84
2021/07/22 06:22:44;;;;;;;9.30;6.68;;;20.00;94.70;;;;;;5074088;28;20024;-83
2021/07/22 06:25:11;;;;;;;9.95;5.88;;;20.00;94.40;;;;;;5074515;28;20021;-84
2021/07/22 06:27:36;;;;;;;10.95;5.60;;;20.10;94.30;;;;;;5073778;28;20463;-80
2021/07/22 06:30:03;;;;;;;12.93;6.20;;;20.20;92.80;;;;;;5075431;28;20051;-79
2021/07/22 06:32:29;;;;;;;21.42;7.43;;;20.20;93.10;;;;;;5074673;28;20541;-79
2021/07/22 06:34:55;;;;;;;10.38;5.97;;;20.20;92.90;;;;;;5074466;28;20025;-80
2021/07/22 06:37:20;;;;;;;9.35;5.97;;;20.30;92.70;;;;;;5074132;28;20070;-79
2021/07/22 06:39:46;;;;;;;9.77;6.80;;;20.40;91.90;;;;;;5075137;28;20414;-79
2021/07/22 06:42:12;;;;;;;10.18;6.20;;;20.40;91.50;;;;;;5073972;28;20025;-79
2021/07/22 06:44:37;;;;;;;11.23;5.78;;;20.50;91.40;;;;;;5075142;28;20031;-80
2021/07/22 06:47:03;;;;;;;9.98;5.68;;;20.60;92.00;;;;;;5075266;28;20036;-79
2021/07/22 06:49:29;;;;;;;12.45;5.72;;;20.90;91.80;;;;;;5074186;28;20033;-81
2021/07/22 06:51:55;;;;;;;9.75;5.15;;;21.20;90.60;;;;;;5075331;28;20020;-78
2021/07/22 06:54:21;;;;;;;8.50;5.30;;;21.50;86.80;;;;;;5074945;28;20092;-80
2021/07/22 06:56:47;;;;;;;8.77;4.82;;;21.80;87.40;;;;;;5073631;28;20037;-79
2021/07/22 06:59:14;;;;;;;9.15;4.90;;;21.90;84.20;;;;;;5073607;28;20047;-84
2021/07/22 07:01:40;;;;;;;7.85;5.00;;;22.20;79.60;;;;;;5073360;28;20103;-80
2021/07/22 07:04:06;;;;;;;6.95;5.00;;;22.20;79.70;;;;;;5075101;28;20449;-79
2021/07/22 07:06:36;;;;;;;7.10;4.47;;;22.30;80.10;;;;;;5074716;28;20478;-84
2021/07/22 07:09:04;;;;;;;7.47;4.20;;;22.40;78.60;;;;;;5073778;28;20032;-84
2021/07/22 07:11:30;;;;;;;7.82;4.38;;;22.50;77.50;;;;;;5073570;28;20031;-81
2021/07/22 07:13:55;;;;;;;6.05;4.10;;;22.70;75.40;;;;;;5073603;28;20020;-82
2021/07/22 07:16:21;;;;;;;4.95;4.05;;;22.80;74.20;;;;;;5073113;28;20024;-79
2021/07/22 07:18:47;;;;;;;11.63;4.15;;;22.90;72.10;;;;;;5074470;28;20456;-79
2021/07/22 07:21:13;;;;;;;9.13;3.97;;;22.90;70.70;;;;;;5073406;28;20460;-76
2021/07/22 07:23:39;;;;;;;8.98;4.53;;;22.90;70.10;;;;;;5073056;28;20035;-83
2021/07/22 07:26:10;;;;;;;19.15;4.50;;;23.00;72.20;;;;;;5073260;28;20107;-78
2021/07/22 07:28:37;;;;;;;25.75;5.10;;;23.10;71.30;;;;;;5072817;28;20047;-80
2021/07/22 07:31:02;;;;;;;11.23;4.72;;;23.00;72.20;;;;;;5072954;28;20072;-81
2021/07/22 07:33:29;;;;;;;10.60;4.53;;;23.20;72.30;;;;;;5073606;28;20136;-80
2021/07/22 07:35:57;;;;;;;10.20;4.22;;;23.20;70.70;;;;;;5072281;28;20037;-79
2021/07/22 07:38:23;;;;;;;23.73;4.68;;;23.40;70.00;;;;;;5073250;28;20039;-79
2021/07/22 07:40:49;;;;;;;12.02;4.30;;;23.50;68.30;;;;;;5072454;28;20021;-77
2021/07/22 07:43:20;;;;;;;6.93;3.90;;;23.60;69.30;;;;;;5073797;28;20047;-78
2021/07/22 07:45:46;;;;;;;8.55;4.15;;;23.70;67.90;;;;;;5073130;28;20021;-80
2021/07/22 07:48:12;;;;;;;8.98;4.97;;;23.80;68.90;;;;;;5073387;28;20483;-78
2021/07/22 07:50:38;;;;;;;7.07;4.00;;;23.90;67.90;;;;;;5073024;28;20074;-79
2021/07/22 07:53:14;;;;;;;8.70;3.90;;;23.80;67.10;;;;;;5072114;28;20086;-79
2021/07/22 07:55:40;;;;;;;7.22;3.65;;;23.90;68.40;;;;;;5071605;28;20020;-77
2021/07/22 07:58:07;;;;;;;7.88;3.83;;;23.90;67.00;;;;;;5071939;28;20079;-80
2021/07/22 08:00:32;;;;;;;5.68;3.90;;;23.90;67.50;;;;;;5071760;28;20048;-78
2021/07/22 08:02:58;;;;;;;12.82;4.10;;;24.10;67.60;;;;;;5071841;28;20040;-78
2021/07/22 08:05:28;;;;;;;6.10;3.72;;;24.20;66.10;;;;;;5072078;28;20044;-79
2021/07/22 08:07:54;;;;;;;5.05;3.55;;;24.20;68.10;;;;;;5072954;28;20036;-76
2021/07/22 08:10:19;;;;;;;7.45;4.35;;;24.40;68.30;;;;;;5073107;28;20024;-78
2021/07/22 08:12:46;;;;;;;8.15;4.05;;;24.50;69.10;;;;;;5072953;28;20024;-77
2021/07/22 08:15:13;;;;;;;14.38;3.88;;;24.60;66.30;;;;;;5072570;28;20479;-78
2021/07/22 08:17:39;;;;;;;5.72;4.30;;;24.60;65.00;;;;;;5072630;28;20094;-77
2021/07/22 08:20:06;;;;;;;7.53;4.15;;;24.40;64.40;;;;;;5071761;28;20399;-77
2021/07/22 08:22:36;;;;;;;6.82;3.53;;;24.40;65.60;;;;;;5072129;28;20025;-78
2021/07/22 08:25:02;;;;;;;4.82;4.00;;;24.30;67.10;;;;;;5072521;28;20013;-76
2021/07/22 08:27:29;;;;;;;5.45;4.10;;;24.50;68.00;;;;;;5071549;28;20033;-79
2021/07/22 08:29:56;;;;;;;5.68;4.03;;;24.70;66.80;;;;;;5073994;28;20020;-85
2021/07/22 08:32:23;;;;;;;6.00;4.10;;;24.90;67.90;;;;;;5072688;28;20503;-76
2021/07/22 08:34:49;;;;;;;7.32;3.72;;;25.00;66.20;;;;;;5072308;28;20031;-77
2021/07/22 08:37:15;;;;;;;6.50;3.92;;;25.10;65.20;;;;;;5072647;28;20021;-77
2021/07/22 08:39:43;;;;;;;5.25;3.92;;;25.20;64.80;;;;;;5073680;28;20021;-78
2021/07/22 08:42:10;;;;;;;6.35;4.10;;;25.30;62.90;;;;;;5072869;28;20025;-77
2021/07/22 08:44:38;;;;;;;8.73;4.25;;;25.30;63.70;;;;;;5074168;28;20074;-82
2021/07/22 08:47:08;;;;;;;10.07;4.50;;;25.10;64.00;;;;;;5072639;28;20028;-81
2021/07/22 08:49:36;;;;;;;15.32;4.85;;;25.10;64.80;;;;;;5072417;28;20040;-82
2021/07/22 08:52:12;;;;;;;15.70;5.55;;;25.10;63.40;;;;;;5072689;28;20020;-83
2021/07/22 08:54:38;;;;;;;8.20;4.43;;;25.20;63.40;;;;;;5072240;28;20024;-77
2021/07/22 08:57:09;;;;;;;8.13;4.75;;;25.30;63.80;;;;;;5073270;28;20020;-77
2021/07/22 08:59:35;;;;;;;9.50;4.43;;;25.30;62.90;;;;;;5072230;28;20369;-77
2021/07/22 09:02:03;;;;;;;7.28;4.32;;;25.30;62.70;;;;;;5072399;28;20127;-81
2021/07/22 09:04:29;;;;;;;8.02;4.30;;;25.40;63.00;;;;;;5073734;28;20059;-78
2021/07/22 09:06:58;;;;;;;12.63;5.10;;;25.40;62.10;;;;;;5072682;28;20048;-79
2021/07/22 09:09:24;;;;;;;6.88;4.50;;;25.50;61.90;;;;;;5072484;28;20028;-78
2021/07/22 09:11:57;;;;;;;6.05;4.25;;;25.40;62.20;;;;;;5072357;28;20089;-78
2021/07/22 09:14:24;;;;;;;9.35;4.38;;;25.30;61.70;;;;;;5072411;28;20571;-83
2021/07/22 09:16:50;;;;;;;6.30;4.70;;;25.30;63.40;;;;;;5073611;28;20020;-79
2021/07/22 09:19:38;;;;;;;7.68;4.32;;;25.50;62.70;;;;;;5072103;28;20024;-79
2021/07/22 09:22:08;;;;;;;6.30;4.32;;;25.50;61.60;;;;;;5072144;28;20028;-79
2021/07/22 09:24:51;;;;;;;5.63;4.30;;;25.40;62.40;;;;;;5073666;28;20021;-78
2021/07/22 09:27:42;;;;;;;8.95;4.25;;;25.50;61.50;;;;;;5071709;28;20029;-77
2021/07/22 09:30:10;;;;;;;8.02;5.28;;;25.30;61.20;;;;;;5072985;28;20029;-76
2021/07/22 09:32:38;;;;;;;7.57;5.05;;;25.40;60.30;;;;;;5071108;28;20035;-76
2021/07/22 09:35:10;;;;;;;11.50;4.95;;;25.30;59.30;;;;;;5071825;28;20476;-84
2021/07/22 09:37:37;;;;;;;5.90;4.82;;;25.40;60.40;;;;;;5071152;28;20472;-76
2021/07/22 09:40:04;;;;;;;5.57;4.60;;;25.70;59.50;;;;;;5074243;28;20025;-76
2021/07/22 09:42:48;;;;;;;7.43;5.10;;;25.80;59.30;;;;;;5076555;28;20020;-85
2021/07/22 09:45:19;;;;;;;6.03;4.70;;;25.90;58.50;;;;;;5075626;28;20044;-83
2021/07/22 09:47:46;;;;;;;8.63;4.75;;;26.00;58.80;;;;;;5075944;28;20457;-78
2021/07/22 09:50:20;;;;;;;6.25;4.57;;;26.00;58.20;;;;;;5076277;28;20025;-82
2021/07/22 09:52:47;;;;;;;8.55;4.45;;;26.00;57.80;;;;;;5075775;28;20531;-78
2021/07/22 09:55:24;;;;;;;9.15;4.70;;;26.00;57.20;;;;;;5076934;28;20029;-85
2021/07/22 09:57:58;;;;;;;5.05;4.32;;;26.00;57.60;;;;;;5075935;28;20048;-81
2021/07/22 10:00:26;;;;;;;6.65;4.95;;;26.00;57.30;;;;;;5075609;28;20407;-85
2021/07/22 10:02:53;;;;;;;6.05;4.57;;;26.10;58.10;;;;;;5075788;28;20020;-78
2021/07/22 10:05:28;;;;;;;5.63;4.35;;;26.20;56.80;;;;;;5075514;28;20028;-80
2021/07/22 10:07:55;;;;;;;8.35;4.82;;;26.30;57.40;;;;;;5075541;28;20031;-81
2021/07/22 10:10:22;;;;;;;5.07;4.32;;;26.40;57.50;;;;;;5075212;28;20120;-80
2021/07/22 10:12:59;;;;;;;9.25;4.20;;;26.50;57.10;;;;;;5075165;28;20020;-78
2021/07/22 10:15:27;;;;;;;5.55;4.13;;;26.60;56.90;;;;;;5075170;28;20070;-79
2021/07/22 10:17:57;;;;;;;8.68;4.60;;;26.50;55.50;;;;;;5074975;28;20032;-80
2021/07/22 10:20:28;;;;;;;6.80;4.43;;;26.50;57.40;;;;;;5075052;28;20027;-77
2021/07/22 10:22:54;;;;;;;7.82;4.50;;;26.30;55.80;;;;;;5074991;28;20020;-78
2021/07/22 10:25:20;;;;;;;9.05;4.50;;;26.40;57.70;;;;;;5075133;28;20032;-80
2021/07/22 10:27:45;;;;;;;5.18;4.57;;;26.50;55.50;;;;;;5075196;28;20037;-79
2021/07/22 10:30:13;;;;;;;8.20;4.35;;;26.40;54.90;;;;;;5074882;28;20024;-79
2021/07/22 10:32:42;;;;;;;5.00;3.90;;;26.40;55.10;;;;;;5075017;28;20484;-79
2021/07/22 10:35:08;;;;;;;5.60;4.75;;;26.50;54.60;;;;;;5075140;28;20155;-79
2021/07/22 10:37:34;;;;;;;5.07;4.50;;;26.50;54.10;;;;;;5074911;28;20032;-78
2021/07/22 10:40:08;;;;;;;5.95;4.35;;;26.70;54.20;;;;;;5075978;28;20024;-78
2021/07/22 10:42:48;;;;;;;5.97;5.10;;;26.80;54.40;;;;;;5074658;28;20028;-77
2021/07/22 10:45:20;;;;;;;5.18;4.18;;;26.80;53.70;;;;;;5075064;28;20027;-80
2021/07/22 10:48:09;;;;;;;5.68;4.50;;;26.80;53.60;;;;;;5074685;28;20044;-78
2021/07/22 10:50:37;;;;;;;7.07;4.60;;;27.10;54.10;;;;;;5073900;28;20153;-79
2021/07/22 10:53:04;;;;;;;7.93;4.22;;;27.10;52.80;;;;;;5074602;28;20029;-81
2021/07/22 10:55:42;;;;;;;5.80;4.75;;;27.20;52.80;;;;;;5074511;28;20096;-79
2021/07/22 10:58:30;;;;;;;6.53;4.63;;;27.00;52.40;;;;;;5074726;28;20029;-80
2021/07/22 11:00:56;;;;;;;5.72;4.22;;;27.00;53.60;;;;;;5074602;28;20040;-80
2021/07/22 11:03:38;;;;;;;8.63;4.50;;;26.60;52.30;;;;;;5074830;28;20025;-79
2021/07/22 11:06:04;;;;;;;5.80;4.60;;;26.60;53.50;;;;;;5074571;28;20033;-79
2021/07/22 11:08:31;;;;;;;5.05;4.30;;;26.80;53.90;;;;;;5074297;28;20033;-77
2021/07/22 11:11:02;;;;;;;12.27;4.45;;;26.90;54.50;;;;;;5074492;28;20067;-79
2021/07/22 11:13:53;;;;;;;6.95;4.32;;;27.20;54.80;;;;;;5074175;28;20029;-81
2021/07/22 11:16:29;;;;;;;14.85;5.35;;;27.30;54.20;;;;;;5068210;28;20036;-80
2021/07/22 11:19:03;;;;;;;7.90;5.05;;;27.20;53.30;;;;;;5074025;28;20027;-80
2021/07/22 11:21:33;;;;;;;6.75;5.05;;;27.00;53.00;;;;;;5074055;28;20112;-79
2021/07/22 11:24:18;;;;;;;6.97;4.50;;;26.90;54.00;;;;;;5074025;28;20031;-81
2021/07/22 11:26:49;;;;;;;6.43;5.03;;;26.90;53.80;;;;;;5074271;28;20372;-78
2021/07/22 11:29:16;;;;;;;6.82;4.50;;;26.60;54.10;;;;;;5074688;28;20028;-79
2021/07/22 11:31:44;;;;;;;6.32;4.65;;;26.30;53.70;;;;;;5075128;28;20016;-78
2021/07/22 11:34:11;;;;;;;9.65;4.78;;;26.20;54.40;;;;;;5073815;28;20387;-79
2021/07/22 11:36:36;;;;;;;8.45;4.43;;;26.10;55.10;;;;;;5073929;28;20387;-79
2021/07/22 11:39:04;;;;;;;7.60;4.90;;;26.10;56.20;;;;;;5073757;28;20025;-79
2021/07/22 11:41:29;;;;;;;6.80;4.20;;;26.30;55.70;;;;;;5073837;28;20028;-79
2021/07/22 11:44:00;;;;;;;6.95;4.47;;;26.40;56.80;;;;;;5073856;28;20016;-78
2021/07/22 11:46:52;;;;;;;9.13;4.97;;;26.60;57.30;;;;;;5073799;28;20021;-79
2021/07/22 11:49:18;;;;;;;5.45;4.53;;;26.60;56.70;;;;;;5069606;28;20072;-80
2021/07/22 11:51:46;;;;;;;8.20;4.43;;;26.70;58.00;;;;;;5073420;28;20097;-80
2021/07/22 11:54:13;;;;;;;7.10;4.43;;;26.90;57.50;;;;;;5074499;28;20464;-79
2021/07/22 11:56:41;;;;;;;6.88;4.30;;;27.10;57.10;;;;;;5074597;28;20124;-80
2021/07/22 11:59:10;;;;;;;6.60;4.93;;;27.30;56.70;;;;;;5073347;28;20023;-78
2021/07/22 12:01:53;;;;;;;6.22;4.30;;;27.40;56.80;;;;;;5073175;28;20060;-81
2021/07/22 12:04:31;;;;;;;8.18;4.50;;;27.50;56.30;;;;;;5073330;28;20032;-79
2021/07/22 12:07:02;;;;;;;9.82;5.20;;;27.50;55.20;;;;;;5073307;28;20063;-81
2021/07/22 12:09:28;;;;;;;7.07;4.53;;;27.50;55.90;;;;;;5073500;28;20111;-80
2021/07/22 12:12:01;;;;;;;9.10;4.53;;;27.60;55.70;;;;;;5073019;28;20520;-80
2021/07/22 12:14:38;;;;;;;11.23;4.93;;;27.90;55.80;;;;;;5074127;28;20074;-81
2021/07/22 12:17:13;;;;;;;5.80;4.70;;;27.90;54.90;;;;;;5073167;28;20016;-82
2021/07/22 12:19:39;;;;;;;;;;;27.90;55.20;;;;;;5072018;28;20030;-79
2021/07/22 12:22:20;;;;;;;7.53;4.43;;;27.90;54.40;;;;;;5074181;28;19928;-81
2021/07/22 12:24:55;;;;;;;5.15;4.63;;;28.00;55.00;;;;;;5073131;28;20032;-81
2021/07/22 12:27:35;;;;;;;6.97;4.68;;;28.00;54.90;;;;;;5073090;28;20020;-81
2021/07/22 12:30:14;;;;;;;8.77;4.43;;;28.10;55.50;;;;;;5074181;28;20028;-81
2021/07/22 12:32:58;;;;;;;6.88;4.30;;;28.20;54.50;;;;;;5073147;28;20480;-78
2021/07/22 12:35:50;;;;;;;5.05;4.43;;;28.30;53.90;;;;;;5074057;28;20494;-79
2021/07/22 12:38:19;;;;;;;7.40;4.60;;;28.30;52.60;;;;;;5069506;28;20036;-77
2021/07/22 12:40:57;;;;;;;5.82;4.20;;;28.30;53.90;;;;;;5071939;28;20460;-80
2021/07/22 12:43:24;;;;;;;8.43;4.78;;;28.60;53.90;;;;;;5072526;28;20031;-79
2021/07/22 12:45:53;;;;;;;6.40;4.55;;;28.70;53.60;;;;;;5071991;28;20025;-77